sensor_id;sensor_type;location;lat;lon;timestamp;pressure;altitude;pressure_sealevel;temperature;humidity
77639;BME280;66802;52.574;14.398;2023-05-06T03:00:18;101803.44;;;7.16;78.65
77639;BME280;66802;52.574;14.398;2023-05-06T03:02:44;101795.72;;;7.12;78.97
77639;BME280;66802;52.574;14.398;2023-05-06T03:05:10;101798.06;;;7.16;78.45
77639;BME280;66802;52.574;14.398;2023-05-06T03:07:36;101789.50;;;7.11;79.19
77639;BME280;66802;52.574;14.398;2023-05-06T03:10:02;101793.34;;;7.07;79.46
77639;BME280;66802;52.574;14.398;2023-05-06T03:12:28;101793.34;;;7.07;79.15
77639;BME280;66802;52.574;14.398;2023-05-06T03:14:56;101804.28;;;7.04;79.35
77639;BME280;66802;52.574;14.398;2023-05-06T03:17:21;101802.06;;;7.11;79.12
77639;BME280;66802;52.574;14.398;2023-05-06T03:19:48;101801.28;;;7.09;79.52
77639;BME280;66802;52.574;14.398;2023-05-06T03:22:14;101812.00;;;6.96;80.44
77639;BME280;66802;52.574;14.398;2023-05-06T03:24:40;101802.34;;;6.93;80.24
77639;BME280;66802;52.574;14.398;2023-05-06T03:27:05;101808.38;;;6.97;79.97
77639;BME280;66802;52.574;14.398;2023-05-06T03:29:31;101801.41;;;7.07;79.53
77639;BME280;66802;52.574;14.398;2023-05-06T03:31:57;101802.47;;;7.05;79.08
77639;BME280;66802;52.574;14.398;2023-05-06T03:34:22;101799.34;;;6.98;80.13
77639;BME280;66802;52.574;14.398;2023-05-06T03:36:48;101801.84;;;7.01;79.85
77639;BME280;66802;52.574;14.398;2023-05-06T03:39:13;101805.81;;;7.08;79.64
77639;BME280;66802;52.574;14.398;2023-05-06T03:41:39;101796.38;;;7.03;79.34
77639;BME280;66802;52.574;14.398;2023-05-06T03:44:04;101796.38;;;7.03;80.00
77639;BME280;66802;52.574;14.398;2023-05-06T03:46:30;101798.31;;;7.13;79.72
77639;BME280;66802;52.574;14.398;2023-05-06T03:48:55;101800.75;;;7.16;78.59
77639;BME280;66802;52.574;14.398;2023-05-06T03:51:22;101790.13;;;7.15;79.33
77639;BME280;66802;52.574;14.398;2023-05-06T03:53:48;101784.53;;;7.05;79.59
77639;BME280;66802;52.574;14.398;2023-05-06T03:56:13;101786.16;;;7.08;78.77
77639;BME280;66802;52.574;14.398;2023-05-06T03:58:42;101778.31;;;7.17;79.41
77639;BME280;66802;52.574;14.398;2023-05-06T04:01:07;101778.53;;;7.02;80.12
77639;BME280;66802;52.574;14.398;2023-05-06T04:03:33;101783.25;;;7.11;78.67
77639;BME280;66802;52.574;14.398;2023-05-06T04:05:58;101775.41;;;7.08;79.26
77639;BME280;66802;52.574;14.398;2023-05-06T04:08:24;101779.41;;;7.02;79.43
77639;BME280;66802;52.574;14.398;2023-05-06T04:10:50;101783.34;;;6.96;80.28
77639;BME280;66802;52.574;14.398;2023-05-06T04:13:15;101793.44;;;7.06;79.83
77639;BME280;66802;52.574;14.398;2023-05-06T04:15:42;101791.41;;;7.09;79.49
77639;BME280;66802;52.574;14.398;2023-05-06T04:18:07;101793.56;;;7.17;79.24
77639;BME280;66802;52.574;14.398;2023-05-06T04:20:33;101791.41;;;7.09;79.63
77639;BME280;66802;52.574;14.398;2023-05-06T04:22:59;101795.38;;;7.04;79.78
77639;BME280;66802;52.574;14.398;2023-05-06T04:25:24;101799.56;;;7.08;80.81
77639;BME280;66802;52.574;14.398;2023-05-06T04:27:50;101804.41;;;7.03;80.43
77639;BME280;66802;52.574;14.398;2023-05-06T04:30:15;101803.41;;;7.04;79.91
77639;BME280;66802;52.574;14.398;2023-05-06T04:32:41;101810.63;;;7.03;80.49
77639;BME280;66802;52.574;14.398;2023-05-06T04:35:07;101817.50;;;7.07;81.04
77639;BME280;66802;52.574;14.398;2023-05-06T04:37:32;101808.81;;;7.16;79.66
77639;BME280;66802;52.574;14.398;2023-05-06T04:40:01;101811.94;;;7.10;80.17
77639;BME280;66802;52.574;14.398;2023-05-06T04:42:26;101804.06;;;7.07;80.44
77639;BME280;66802;52.574;14.398;2023-05-06T04:44:52;101814.53;;;7.24;79.31
77639;BME280;66802;52.574;14.398;2023-05-06T04:47:17;101814.72;;;7.21;80.58
77639;BME280;66802;52.574;14.398;2023-05-06T04:49:43;101811.19;;;7.21;79.88
77639;BME280;66802;52.574;14.398;2023-05-06T04:52:08;101815.69;;;7.20;80.26
77639;BME280;66802;52.574;14.398;2023-05-06T04:54:34;101812.91;;;7.22;80.12
77639;BME280;66802;52.574;14.398;2023-05-06T04:56:59;101814.94;;;7.31;79.80
77639;BME280;66802;52.574;14.398;2023-05-06T04:59:25;101820.44;;;7.29;79.49
77639;BME280;66802;52.574;14.398;2023-05-06T05:01:50;101814.63;;;7.10;80.55
77639;BME280;66802;52.574;14.398;2023-05-06T05:04:16;101800.44;;;7.08;80.82
77639;BME280;66802;52.574;14.398;2023-05-06T05:06:42;101805.38;;;7.14;81.59
77639;BME280;66802;52.574;14.398;2023-05-06T05:09:07;101805.38;;;7.14;81.33
77639;BME280;66802;52.574;14.398;2023-05-06T05:11:37;101804.19;;;7.06;81.80
77639;BME280;66802;52.574;14.398;2023-05-06T05:14:03;101803.75;;;6.99;81.81
77639;BME280;66802;52.574;14.398;2023-05-06T05:16:28;101810.75;;;7.02;82.23
77639;BME280;66802;52.574;14.398;2023-05-06T05:18:55;101800.22;;;7.11;82.15
77639;BME280;66802;52.574;14.398;2023-05-06T05:21:20;101807.19;;;7.01;83.52
77639;BME280;66802;52.574;14.398;2023-05-06T05:23:46;101807.22;;;7.14;82.46
77639;BME280;66802;52.574;14.398;2023-05-06T05:26:11;101807.63;;;7.20;81.98
77639;BME280;66802;52.574;14.398;2023-05-06T05:28:37;101805.47;;;7.25;82.35
77639;BME280;66802;52.574;14.398;2023-05-06T05:31:03;101802.69;;;7.27;82.36
77639;BME280;66802;52.574;14.398;2023-05-06T05:33:29;101806.44;;;7.37;81.70
77639;BME280;66802;52.574;14.398;2023-05-06T05:35:56;101808.50;;;7.33;82.43
77639;BME280;66802;52.574;14.398;2023-05-06T05:38:22;101803.03;;;7.35;82.28
77639;BME280;66802;52.574;14.398;2023-05-06T05:40:48;101809.88;;;7.26;82.94
77639;BME280;66802;52.574;14.398;2023-05-06T05:43:13;101804.41;;;7.28;82.73
77639;BME280;66802;52.574;14.398;2023-05-06T05:45:39;101800.00;;;7.27;82.67
77639;BME280;66802;52.574;14.398;2023-05-06T05:48:04;101809.69;;;7.29;82.79
77639;BME280;66802;52.574;14.398;2023-05-06T05:50:30;101805.06;;;7.31;83.25
77639;BME280;66802;52.574;14.398;2023-05-06T05:52:55;101796.16;;;7.31;83.31
77639;BME280;66802;52.574;14.398;2023-05-06T05:55:21;101801.72;;;7.28;83.88
77639;BME280;66802;52.574;14.398;2023-05-06T05:57:47;101804.72;;;7.36;83.70
77639;BME280;66802;52.574;14.398;2023-05-06T06:00:12;101802.81;;;7.38;83.83
77639;BME280;66802;52.574;14.398;2023-05-06T06:02:38;101797.88;;;7.45;84.12
77639;BME280;66802;52.574;14.398;2023-05-06T06:05:05;101806.03;;;7.43;83.62
77639;BME280;66802;52.574;14.398;2023-05-06T06:07:31;101803.56;;;7.40;84.09
77639;BME280;66802;52.574;14.398;2023-05-06T06:09:57;101816.34;;;7.37;84.02
77639;BME280;66802;52.574;14.398;2023-05-06T06:12:23;101815.47;;;7.49;83.48
77639;BME280;66802;52.574;14.398;2023-05-06T06:14:49;101812.69;;;7.50;83.86
77639;BME280;66802;52.574;14.398;2023-05-06T06:17:15;101809.91;;;7.52;82.74
77639;BME280;66802;52.574;14.398;2023-05-06T06:19:41;101809.91;;;7.52;84.02
77639;BME280;66802;52.574;14.398;2023-05-06T06:22:06;101820.09;;;7.47;83.33
77639;BME280;66802;52.574;14.398;2023-05-06T06:24:32;101820.84;;;7.49;83.61
77639;BME280;66802;52.574;14.398;2023-05-06T06:27:01;101830.00;;;7.46;83.80
77639;BME280;66802;52.574;14.398;2023-05-06T06:29:27;101816.34;;;7.49;84.07
77639;BME280;66802;52.574;14.398;2023-05-06T06:31:53;101825.06;;;7.53;83.40
77639;BME280;66802;52.574;14.398;2023-05-06T06:34:20;101820.66;;;7.52;83.78
77639;BME280;66802;52.574;14.398;2023-05-06T06:36:46;101822.56;;;7.50;84.25
77639;BME280;66802;52.574;14.398;2023-05-06T06:39:12;101826.88;;;7.52;83.82
77639;BME280;66802;52.574;14.398;2023-05-06T06:41:37;101826.03;;;7.52;84.13
77639;BME280;66802;52.574;14.398;2023-05-06T06:44:03;101826.13;;;7.50;84.27
77639;BME280;66802;52.574;14.398;2023-05-06T06:46:29;101827.75;;;7.53;83.89
77639;BME280;66802;52.574;14.398;2023-05-06T06:48:54;101823.88;;;7.57;84.25
77639;BME280;66802;52.574;14.398;2023-05-06T06:51:20;101833.41;;;7.61;84.42
77639;BME280;66802;52.574;14.398;2023-05-06T06:53:45;101829.00;;;7.60;84.27
77639;BME280;66802;52.574;14.398;2023-05-06T06:56:13;101832.00;;;7.68;84.81
77639;BME280;66802;52.574;14.398;2023-05-06T06:58:40;101829.13;;;7.71;84.09
77639;BME280;66802;52.574;14.398;2023-05-06T07:01:06;101824.59;;;7.72;83.98
77639;BME280;66802;52.574;14.398;2023-05-06T07:03:31;101825.81;;;7.67;84.18
77639;BME280;66802;52.574;14.398;2023-05-06T07:05:57;101826.97;;;7.63;84.10
77639;BME280;66802;52.574;14.398;2023-05-06T07:08:22;101827.94;;;7.62;84.70
77639;BME280;66802;52.574;14.398;2023-05-06T07:10:48;101828.59;;;7.66;85.06
77639;BME280;66802;52.574;14.398;2023-05-06T07:13:14;101827.94;;;7.75;84.97
77639;BME280;66802;52.574;14.398;2023-05-06T07:15:39;101825.56;;;7.70;85.15
77639;BME280;66802;52.574;14.398;2023-05-06T07:18:05;101823.31;;;7.77;84.82
77639;BME280;66802;52.574;14.398;2023-05-06T07:20:31;101829.00;;;7.73;85.17
77639;BME280;66802;52.574;14.398;2023-05-06T07:22:57;101828.16;;;7.72;85.82
77639;BME280;66802;52.574;14.398;2023-05-06T07:25:22;101831.59;;;7.74;85.50
77639;BME280;66802;52.574;14.398;2023-05-06T07:27:48;101826.00;;;7.77;85.37
77639;BME280;66802;52.574;14.398;2023-05-06T07:30:14;101829.00;;;7.73;86.06
77639;BME280;66802;52.574;14.398;2023-05-06T07:32:40;101828.03;;;7.74;85.35
77639;BME280;66802;52.574;14.398;2023-05-06T07:35:07;101824.50;;;7.73;85.53
77639;BME280;66802;52.574;14.398;2023-05-06T07:37:32;101830.72;;;7.74;85.35
77639;BME280;66802;52.574;14.398;2023-05-06T07:39:58;101832.75;;;7.70;86.06
77639;BME280;66802;52.574;14.398;2023-05-06T07:42:24;101832.78;;;7.57;86.91
77639;BME280;66802;52.574;14.398;2023-05-06T07:44:49;101839.56;;;7.63;86.53
77639;BME280;66802;52.574;14.398;2023-05-06T07:47:25;101846.66;;;7.64;86.16
77639;BME280;66802;52.574;14.398;2023-05-06T07:49:52;101846.75;;;7.62;86.25
77639;BME280;66802;52.574;14.398;2023-05-06T07:52:18;101841.28;;;7.64;86.03
77639;BME280;66802;52.574;14.398;2023-05-06T07:54:43;101864.91;;;7.59;86.47
77639;BME280;66802;52.574;14.398;2023-05-06T07:57:09;101865.56;;;7.50;86.82
77639;BME280;66802;52.574;14.398;2023-05-06T07:59:34;101866.88;;;7.57;87.09
77639;BME280;66802;52.574;14.398;2023-05-06T08:02:01;101865.25;;;7.67;86.58
77639;BME280;66802;52.574;14.398;2023-05-06T08:04:26;101870.50;;;7.68;86.69
77639;BME280;66802;52.574;14.398;2023-05-06T08:06:52;101875.25;;;7.65;86.19
77639;BME280;66802;52.574;14.398;2023-05-06T08:09:18;101882.34;;;7.66;85.57
77639;BME280;66802;52.574;14.398;2023-05-06T08:11:44;101881.69;;;7.62;85.84
77639;BME280;66802;52.574;14.398;2023-05-06T08:14:09;101882.88;;;7.71;86.14
77639;BME280;66802;52.574;14.398;2023-05-06T08:16:35;101880.38;;;7.68;86.20
77639;BME280;66802;52.574;14.398;2023-05-06T08:19:00;101880.19;;;7.71;86.44
77639;BME280;66802;52.574;14.398;2023-05-06T08:21:26;101878.91;;;7.64;85.75
77639;BME280;66802;52.574;14.398;2023-05-06T08:23:52;101873.41;;;7.65;86.16
77639;BME280;66802;52.574;14.398;2023-05-06T08:26:17;101878.91;;;7.64;85.82
77639;BME280;66802;52.574;14.398;2023-05-06T08:28:43;101879.09;;;7.61;85.92
77639;BME280;66802;52.574;14.398;2023-05-06T08:31:08;101881.13;;;7.57;86.63
77639;BME280;66802;52.574;14.398;2023-05-06T08:33:34;101879.75;;;7.64;86.78
77639;BME280;66802;52.574;14.398;2023-05-06T08:36:00;101883.50;;;7.62;86.38
77639;BME280;66802;52.574;14.398;2023-05-06T08:38:25;101880.38;;;7.68;86.29
77639;BME280;66802;52.574;14.398;2023-05-06T08:40:52;101884.94;;;7.67;86.70
77639;BME280;66802;52.574;14.398;2023-05-06T08:43:20;101877.84;;;7.66;86.34
77639;BME280;66802;52.574;14.398;2023-05-06T08:45:46;101872.66;;;7.63;86.06
77639;BME280;66802;52.574;14.398;2023-05-06T08:48:13;101878.47;;;7.70;85.50
77639;BME280;66802;52.574;14.398;2023-05-06T08:50:42;101884.94;;;7.67;86.13
77639;BME280;66802;52.574;14.398;2023-05-06T08:53:12;101881.47;;;7.65;85.94
77639;BME280;66802;52.574;14.398;2023-05-06T08:55:41;101877.38;;;7.60;86.08
77639;BME280;66802;52.574;14.398;2023-05-06T08:58:10;101879.09;;;7.61;85.68
77639;BME280;66802;52.574;14.398;2023-05-06T09:00:36;101878.03;;;7.51;86.75
77639;BME280;66802;52.574;14.398;2023-05-06T09:03:02;101884.38;;;7.50;86.76
77639;BME280;66802;52.574;14.398;2023-05-06T09:05:28;101871.91;;;7.49;86.47
77639;BME280;66802;52.574;14.398;2023-05-06T09:07:53;101872.84;;;7.48;87.09
77639;BME280;66802;52.574;14.398;2023-05-06T09:10:19;101872.84;;;7.48;86.77
77639;BME280;66802;52.574;14.398;2023-05-06T09:12:45;101878.38;;;7.46;87.14
77639;BME280;66802;52.574;14.398;2023-05-06T09:15:10;101871.13;;;7.47;86.53
77639;BME280;66802;52.574;14.398;2023-05-06T09:17:36;101865.03;;;7.45;86.30
77639;BME280;66802;52.574;14.398;2023-05-06T09:20:02;101861.25;;;7.47;86.25
77639;BME280;66802;52.574;14.398;2023-05-06T09:22:29;101859.75;;;7.43;86.31
77639;BME280;66802;52.574;14.398;2023-05-06T09:24:57;101865.78;;;7.34;86.84
77639;BME280;66802;52.574;14.398;2023-05-06T09:27:29;101872.31;;;7.30;86.86
77639;BME280;66802;52.574;14.398;2023-05-06T09:30:02;101878.25;;;7.35;86.67
77639;BME280;66802;52.574;14.398;2023-05-06T09:32:30;101888.66;;;7.40;86.39
77639;BME280;66802;52.574;14.398;2023-05-06T09:34:56;101886.31;;;7.35;86.34
77639;BME280;66802;52.574;14.398;2023-05-06T09:37:23;101884.03;;;7.42;86.15
77639;BME280;66802;52.574;14.398;2023-05-06T09:39:53;101895.72;;;7.28;86.47
77639;BME280;66802;52.574;14.398;2023-05-06T09:42:21;101903.59;;;7.31;85.97
77639;BME280;66802;52.574;14.398;2023-05-06T09:44:48;101897.56;;;7.27;85.93
77639;BME280;66802;52.574;14.398;2023-05-06T09:47:14;101912.16;;;7.23;86.15
77639;BME280;66802;52.574;14.398;2023-05-06T09:49:39;101910.13;;;7.27;86.44
77639;BME280;66802;52.574;14.398;2023-05-06T09:52:07;101909.16;;;7.28;85.94
77639;BME280;66802;52.574;14.398;2023-05-06T09:54:34;101918.94;;;7.29;85.65
77639;BME280;66802;52.574;14.398;2023-05-06T09:57:02;101917.53;;;7.23;85.74
77639;BME280;66802;52.574;14.398;2023-05-06T09:59:29;101923.31;;;7.17;85.96
77639;BME280;66802;52.574;14.398;2023-05-06T10:01:57;101906.75;;;7.11;86.56
77639;BME280;66802;52.574;14.398;2023-05-06T10:04:25;101912.47;;;7.19;86.16
77639;BME280;66802;52.574;14.398;2023-05-06T10:06:54;101915.59;;;7.25;86.19
77639;BME280;66802;52.574;14.398;2023-05-06T10:09:23;101920.44;;;7.20;86.58
77639;BME280;66802;52.574;14.398;2023-05-06T10:11:50;101918.50;;;7.22;85.85
77639;BME280;66802;52.574;14.398;2023-05-06T10:14:17;101915.16;;;7.19;85.98
77639;BME280;66802;52.574;14.398;2023-05-06T10:16:45;101915.34;;;7.16;86.20
77639;BME280;66802;52.574;14.398;2023-05-06T10:19:18;101920.09;;;7.12;85.59
77639;BME280;66802;52.574;14.398;2023-05-06T10:21:53;101922.00;;;7.10;85.65
77639;BME280;66802;52.574;14.398;2023-05-06T10:24:24;101926.41;;;7.11;85.69
77639;BME280;66802;52.574;14.398;2023-05-06T10:26:55;101932.75;;;7.10;86.40
77639;BME280;66802;52.574;14.398;2023-05-06T10:29:24;101936.41;;;7.09;85.92
77639;BME280;66802;52.574;14.398;2023-05-06T10:31:54;101938.88;;;7.12;86.04
77639;BME280;66802;52.574;14.398;2023-05-06T10:34:20;101946.28;;;7.09;85.43
77639;BME280;66802;52.574;14.398;2023-05-06T10:36:51;101942.63;;;7.10;85.70
77639;BME280;66802;52.574;14.398;2023-05-06T10:39:19;101943.78;;;7.06;85.81
77639;BME280;66802;52.574;14.398;2023-05-06T10:41:46;101945.13;;;7.13;85.74
77639;BME280;66802;52.574;14.398;2023-05-06T10:44:12;101942.81;;;7.07;86.25
77639;BME280;66802;52.574;14.398;2023-05-06T10:46:59;101942.97;;;7.18;86.57
77639;BME280;66802;52.574;14.398;2023-05-06T10:49:29;101940.03;;;7.08;85.93
77639;BME280;66802;52.574;14.398;2023-05-06T10:52:12;101935.53;;;7.09;86.65
77639;BME280;66802;52.574;14.398;2023-05-06T10:54:49;101928.78;;;7.16;86.40
77639;BME280;66802;52.574;14.398;2023-05-06T10:57:15;101937.16;;;7.11;86.30
77639;BME280;66802;52.574;14.398;2023-05-06T10:59:46;101941.78;;;7.09;86.09
77639;BME280;66802;52.574;14.398;2023-05-06T11:02:13;101937.94;;;7.13;86.47
77639;BME280;66802;52.574;14.398;2023-05-06T11:04:41;101941.16;;;7.18;86.64
77639;BME280;66802;52.574;14.398;2023-05-06T11:07:10;101953.41;;;7.22;87.01
77639;BME280;66802;52.574;14.398;2023-05-06T11:10:02;101940.53;;;7.27;86.35
77639;BME280;66802;52.574;14.398;2023-05-06T11:12:47;101947.09;;;7.23;85.62
77639;BME280;66802;52.574;14.398;2023-05-06T11:26:16;101955.47;;;7.31;86.22
77639;BME280;66802;52.574;14.398;2023-05-06T11:28:45;101965.66;;;7.26;86.80
77639;BME280;66802;52.574;14.398;2023-05-06T11:31:12;101958.34;;;7.28;86.13
77639;BME280;66802;52.574;14.398;2023-05-06T11:33:47;101956.97;;;7.23;86.25
77639;BME280;66802;52.574;14.398;2023-05-06T11:36:15;101968.91;;;7.31;86.76
77639;BME280;66802;52.574;14.398;2023-05-06T11:38:42;101968.16;;;7.29;86.56
77639;BME280;66802;52.574;14.398;2023-05-06T11:41:08;101960.03;;;7.17;87.25
77639;BME280;66802;52.574;14.398;2023-05-06T11:43:34;101965.13;;;7.21;86.34
77639;BME280;66802;52.574;14.398;2023-05-06T11:45:59;101974.91;;;7.22;86.95
77639;BME280;66802;52.574;14.398;2023-05-06T11:48:25;101978.22;;;7.26;87.75
77639;BME280;66802;52.574;14.398;2023-05-06T11:50:50;101990.28;;;7.33;87.31
77639;BME280;66802;52.574;14.398;2023-05-06T11:53:18;101996.63;;;7.32;87.31
77639;BME280;66802;52.574;14.398;2023-05-06T11:55:47;101999.50;;;7.29;87.18
77639;BME280;66802;52.574;14.398;2023-05-06T11:58:23;102016.84;;;7.38;87.85
77639;BME280;66802;52.574;14.398;2023-05-06T12:00:53;102008.56;;;7.41;87.37
77639;BME280;66802;52.574;14.398;2023-05-06T12:03:20;102008.06;;;7.48;86.54
77639;BME280;66802;52.574;14.398;2023-05-06T12:05:47;102014.91;;;7.40;86.32
77639;BME280;66802;52.574;14.398;2023-05-06T12:08:15;102021.34;;;7.37;86.97
77639;BME280;66802;52.574;14.398;2023-05-06T12:10:44;102022.00;;;7.41;87.09
77639;BME280;66802;52.574;14.398;2023-05-06T12:13:11;102032.06;;;7.24;87.22
77639;BME280;66802;52.574;14.398;2023-05-06T12:15:37;102030.88;;;7.28;87.20
77639;BME280;66802;52.574;14.398;2023-05-06T12:18:03;102036.81;;;7.33;87.86
77639;BME280;66802;52.574;14.398;2023-05-06T12:20:29;102046.28;;;7.39;86.73
77639;BME280;66802;52.574;14.398;2023-05-06T12:23:10;102044.25;;;7.43;86.24
77639;BME280;66802;52.574;14.398;2023-05-06T12:25:36;102036.41;;;7.40;86.89
77639;BME280;66802;52.574;14.398;2023-05-06T12:28:20;102037.69;;;7.47;86.43
77639;BME280;66802;52.574;14.398;2023-05-06T12:30:51;102042.72;;;7.39;86.86
77639;BME280;66802;52.574;14.398;2023-05-06T12:33:16;102049.28;;;7.35;87.25
77639;BME280;66802;52.574;14.398;2023-05-06T12:35:42;102055.41;;;7.37;87.41
77639;BME280;66802;52.574;14.398;2023-05-06T12:38:16;102056.63;;;7.45;87.17
77639;BME280;66802;52.574;14.398;2023-05-06T12:40:44;102056.69;;;7.31;87.86
77639;BME280;66802;52.574;14.398;2023-05-06T12:43:11;102058.31;;;7.33;86.86
77639;BME280;66802;52.574;14.398;2023-05-06T12:45:37;102071.66;;;7.35;87.69
77639;BME280;66802;52.574;14.398;2023-05-06T12:48:04;102055.31;;;7.38;87.87
77639;BME280;66802;52.574;14.398;2023-05-06T12:50:42;102061.25;;;7.43;87.59
77639;BME280;66802;52.574;14.398;2023-05-06T12:53:10;102055.09;;;7.41;87.75
77639;BME280;66802;52.574;14.398;2023-05-06T12:55:40;102059.09;;;7.48;87.54
77639;BME280;66802;52.574;14.398;2023-05-06T12:58:17;102063.16;;;7.41;88.50
77639;BME280;66802;52.574;14.398;2023-05-06T13:00:43;102065.75;;;7.43;87.69
77639;BME280;66802;52.574;14.398;2023-05-06T13:03:08;102071.03;;;7.44;87.34
77639;BME280;66802;52.574;14.398;2023-05-06T13:05:35;102072.63;;;7.47;87.42
77639;BME280;66802;52.574;14.398;2023-05-06T13:08:02;102080.31;;;7.53;87.05
77639;BME280;66802;52.574;14.398;2023-05-06T13:10:29;102067.09;;;7.36;87.67
77639;BME280;66802;52.574;14.398;2023-05-06T13:12:54;102069.13;;;7.46;87.66
77639;BME280;66802;52.574;14.398;2023-05-06T13:15:20;102069.75;;;7.50;87.67
77639;BME280;66802;52.574;14.398;2023-05-06T13:17:47;102066.88;;;7.53;86.80
77639;BME280;66802;52.574;14.398;2023-05-06T13:20:13;102070.00;;;7.59;86.96
77639;BME280;66802;52.574;14.398;2023-05-06T13:22:38;102084.53;;;7.57;87.49
77639;BME280;66802;52.574;14.398;2023-05-06T13:25:04;102085.47;;;7.56;87.59
77639;BME280;66802;52.574;14.398;2023-05-06T13:27:30;102085.31;;;7.72;87.53
77639;BME280;66802;52.574;14.398;2023-05-06T13:29:56;102090.56;;;7.73;87.31
77639;BME280;66802;52.574;14.398;2023-05-06T13:32:22;102099.50;;;7.74;87.19
77639;BME280;66802;52.574;14.398;2023-05-06T13:34:47;102099.06;;;7.67;86.83
77639;BME280;66802;52.574;14.398;2023-05-06T13:37:13;102100.13;;;7.64;87.06
77639;BME280;66802;52.574;14.398;2023-05-06T13:39:39;102106.47;;;7.63;87.43
77639;BME280;66802;52.574;14.398;2023-05-06T13:42:04;102109.03;;;7.65;88.25
77639;BME280;66802;52.574;14.398;2023-05-06T13:44:30;102103.69;;;7.65;87.69
77639;BME280;66802;52.574;14.398;2023-05-06T13:46:56;102109.28;;;7.75;87.65
77639;BME280;66802;52.574;14.398;2023-05-06T13:49:22;102106.28;;;7.79;87.12
77639;BME280;66802;52.574;14.398;2023-05-06T13:51:47;102112.53;;;7.80;87.16
77639;BME280;66802;52.574;14.398;2023-05-06T13:54:13;102108.56;;;7.85;87.46
77639;BME280;66802;52.574;14.398;2023-05-06T13:56:38;102112.31;;;7.83;87.48
77639;BME280;66802;52.574;14.398;2023-05-06T13:59:04;102122.03;;;7.85;87.76
77639;BME280;66802;52.574;14.398;2023-05-06T14:01:31;102112.22;;;7.84;87.33
77639;BME280;66802;52.574;14.398;2023-05-06T14:03:57;102122.97;;;7.84;87.19
77639;BME280;66802;52.574;14.398;2023-05-06T14:06:22;102115.78;;;7.85;87.74
77639;BME280;66802;52.574;14.398;2023-05-06T14:08:48;102115.88;;;7.83;87.83
77639;BME280;66802;52.574;14.398;2023-05-06T14:11:13;102123.66;;;7.88;87.64
77639;BME280;66802;52.574;14.398;2023-05-06T14:13:39;102112.66;;;7.91;87.17
77639;BME280;66802;52.574;14.398;2023-05-06T14:16:05;102113.53;;;7.91;86.88
77639;BME280;66802;52.574;14.398;2023-05-06T14:18:32;102111.78;;;7.90;87.77
77639;BME280;66802;52.574;14.398;2023-05-06T14:21:00;102112.25;;;7.97;87.50
77639;BME280;66802;52.574;14.398;2023-05-06T14:23:25;102105.59;;;8.02;86.58
77639;BME280;66802;52.574;14.398;2023-05-06T14:25:51;102114.63;;;8.01;87.04
77639;BME280;66802;52.574;14.398;2023-05-06T14:28:16;102109.16;;;8.03;86.83
77639;BME280;66802;52.574;14.398;2023-05-06T14:30:42;102105.28;;;8.07;87.03
77639;BME280;66802;52.574;14.398;2023-05-06T14:33:08;102102.59;;;8.07;87.32
77639;BME280;66802;52.574;14.398;2023-05-06T14:35:34;102098.28;;;8.04;87.42
77639;BME280;66802;52.574;14.398;2023-05-06T14:37:59;102102.69;;;8.05;87.64
77639;BME280;66802;52.574;14.398;2023-05-06T14:40:25;102105.59;;;8.02;87.05
77639;BME280;66802;52.574;14.398;2023-05-06T14:42:51;102105.28;;;8.07;86.93
77639;BME280;66802;52.574;14.398;2023-05-06T14:45:18;102098.28;;;8.04;86.77
77639;BME280;66802;52.574;14.398;2023-05-06T14:47:43;102111.44;;;8.09;87.07
77639;BME280;66802;52.574;14.398;2023-05-06T14:50:10;102110.78;;;8.05;86.46
77639;BME280;66802;52.574;14.398;2023-05-06T14:52:38;102103.66;;;8.04;86.18
77639;BME280;66802;52.574;14.398;2023-05-06T14:55:06;102112.91;;;8.00;86.69
77639;BME280;66802;52.574;14.398;2023-05-06T14:57:32;102102.91;;;8.02;86.98
77639;BME280;66802;52.574;14.398;2023-05-06T14:59:57;102107.13;;;8.06;86.81
77639;BME280;66802;52.574;14.398;2023-05-06T15:02:23;102117.56;;;8.11;86.34
77639;BME280;66802;52.574;14.398;2023-05-06T15:04:49;102118.53;;;8.10;86.45
77639;BME280;66802;52.574;14.398;2023-05-06T15:07:16;102118.75;;;8.07;86.53
77639;BME280;66802;52.574;14.398;2023-05-06T15:09:41;102121.00;;;8.13;86.78
77639;BME280;66802;52.574;14.398;2023-05-06T15:12:11;102121.31;;;8.09;87.29
77639;BME280;66802;52.574;14.398;2023-05-06T15:23:13;102121.84;;;8.14;86.83
77639;BME280;66802;52.574;14.398;2023-05-06T15:53:58;102142.22;;;8.18;86.77
77639;BME280;66802;52.574;14.398;2023-05-06T15:58:52;102137.16;;;8.26;86.61
77639;BME280;66802;52.574;14.398;2023-05-06T16:01:17;102142.81;;;8.35;86.03
77639;BME280;66802;52.574;14.398;2023-05-06T16:03:43;102136.97;;;8.29;86.22
77639;BME280;66802;52.574;14.398;2023-05-06T16:06:09;102147.94;;;8.26;86.41
77639;BME280;66802;52.574;14.398;2023-05-06T16:08:36;102137.94;;;8.28;86.48
77639;BME280;66802;52.574;14.398;2023-05-06T16:11:02;102132.34;;;8.31;86.47
77639;BME280;66802;52.574;14.398;2023-05-06T16:13:30;102137.41;;;8.35;86.29
77639;BME280;66802;52.574;14.398;2023-05-06T16:15:55;102132.03;;;8.35;86.46
77639;BME280;66802;52.574;14.398;2023-05-06T16:18:21;102135.41;;;8.39;85.75
77639;BME280;66802;52.574;14.398;2023-05-06T16:20:46;102132.03;;;8.35;86.13
77639;BME280;66802;52.574;14.398;2023-05-06T16:23:13;102140.22;;;8.34;85.90
77639;BME280;66802;52.574;14.398;2023-05-06T16:25:38;102136.00;;;8.30;85.81
77639;BME280;66802;52.574;14.398;2023-05-06T16:28:05;102133.50;;;8.27;86.54
77639;BME280;66802;52.574;14.398;2023-05-06T16:30:31;102136.66;;;8.33;86.40
77639;BME280;66802;52.574;14.398;2023-05-06T16:32:56;102143.09;;;8.31;87.10
77639;BME280;66802;52.574;14.398;2023-05-06T16:35:22;102150.88;;;8.35;86.55
77639;BME280;66802;52.574;14.398;2023-05-06T16:37:47;102148.78;;;8.26;86.49